sensor_id;sensor_type;location;lat;lon;timestamp;P1;P2;P0
59546;PMS5003;45368;55.002;-1.592;2023-02-28T00:02:04;3;1;
59546;PMS5003;45368;55.002;-1.592;2023-02-28T00:04:31;3;1;
59546;PMS5003;45368;55.002;-1.592;2023-02-28T00:06:58;2;1;
59546;PMS5003;45368;55.002;-1.592;2023-02-28T00:09:25;1;1;
59546;PMS5003;45368;55.002;-1.592;2023-02-28T00:11:53;2;1;
59546;PMS5003;45368;55.002;-1.592;2023-02-28T00:14:29;3;1;
59546;PMS5003;45368;55.002;-1.592;2023-02-28T00:16:57;4;3;
59546;PMS5003;45368;55.002;-1.592;2023-02-28T00:19:32;2;2;
59546;PMS5003;45368;55.002;-1.592;2023-02-28T00:22:00;1;1;
59546;PMS5003;45368;55.002;-1.592;2023-02-28T00:24:33;2;2;
59546;PMS5003;45368;55.002;-1.592;2023-02-28T00:27:25;2;1;
59546;PMS5003;45368;55.002;-1.592;2023-02-28T00:29:53;3;2;
59546;PMS5003;45368;55.002;-1.592;2023-02-28T00:32:22;1;1;
59546;PMS5003;45368;55.002;-1.592;2023-02-28T00:34:50;2;2;
59546;PMS5003;45368;55.002;-1.592;2023-02-28T00:37:40;1;1;
59546;PMS5003;45368;55.002;-1.592;2023-02-28T00:40:30;1;1;
59546;PMS5003;45368;55.002;-1.592;2023-02-28T00:43:39;2;2;
59546;PMS5003;45368;55.002;-1.592;2023-02-28T00:46:24;0;0;
59546;PMS5003;45368;55.002;-1.592;2023-02-28T00:48:58;2;2;
59546;PMS5003;45368;55.002;-1.592;2023-02-28T00:49:31;2;2;
59546;PMS5003;45368;55.002;-1.592;2023-02-28T00:53:09;3;2;
59546;PMS5003;45368;55.002;-1.592;2023-02-28T00:55:44;2;2;
59546;PMS5003;45368;55.002;-1.592;2023-02-28T00:59:30;3;3;
59546;PMS5003;45368;55.002;-1.592;2023-02-28T01:02:12;3;2;
59546;PMS5003;45368;55.002;-1.592;2023-02-28T01:04:50;2;0;
59546;PMS5003;45368;55.002;-1.592;2023-02-28T01:07:18;2;1;
59546;PMS5003;45368;55.002;-1.592;2023-02-28T01:09:54;3;1;
59546;PMS5003;45368;55.002;-1.592;2023-02-28T01:12:38;2;2;
59546;PMS5003;45368;55.002;-1.592;2023-02-28T01:15:11;2;1;
59546;PMS5003;45368;55.002;-1.592;2023-02-28T01:18:05;1;1;
59546;PMS5003;45368;55.002;-1.592;2023-02-28T01:20:33;2;0;
59546;PMS5003;45368;55.002;-1.592;2023-02-28T01:23:26;1;1;
59546;PMS5003;45368;55.002;-1.592;2023-02-28T01:26:27;0;0;
59546;PMS5003;45368;55.002;-1.592;2023-02-28T01:29:33;4;3;
59546;PMS5003;45368;55.002;-1.592;2023-02-28T01:32:58;3;1;
59546;PMS5003;45368;55.002;-1.592;2023-02-28T01:35:33;1;0;
59546;PMS5003;45368;55.002;-1.592;2023-02-28T01:38:08;2;2;
59546;PMS5003;45368;55.002;-1.592;2023-02-28T01:40:35;2;2;
59546;PMS5003;45368;55.002;-1.592;2023-02-28T01:43:04;0;0;
59546;PMS5003;45368;55.002;-1.592;2023-02-28T01:45:58;0;0;
59546;PMS5003;45368;55.002;-1.592;2023-02-28T01:48:27;4;2;
59546;PMS5003;45368;55.002;-1.592;2023-02-28T01:50:58;2;1;
59546;PMS5003;45368;55.002;-1.592;2023-02-28T01:53:32;4;3;
59546;PMS5003;45368;55.002;-1.592;2023-02-28T01:56:06;2;1;
59546;PMS5003;45368;55.002;-1.592;2023-02-28T01:58:36;2;1;
59546;PMS5003;45368;55.002;-1.592;2023-02-28T02:01:26;2;2;
59546;PMS5003;45368;55.002;-1.592;2023-02-28T02:03:56;1;1;
59546;PMS5003;45368;55.002;-1.592;2023-02-28T02:06:34;1;1;
59546;PMS5003;45368;55.002;-1.592;2023-02-28T02:09:06;1;1;
59546;PMS5003;45368;55.002;-1.592;2023-02-28T02:11:35;0;0;
59546;PMS5003;45368;55.002;-1.592;2023-02-28T02:14:44;2;1;
59546;PMS5003;45368;55.002;-1.592;2023-02-28T02:17:26;1;1;
59546;PMS5003;45368;55.002;-1.592;2023-02-28T02:22:49;2;2;
59546;PMS5003;45368;55.002;-1.592;2023-02-28T02:27:26;1;0;
59546;PMS5003;45368;55.002;-1.592;2023-02-28T02:30:17;0;0;
59546;PMS5003;45368;55.002;-1.592;2023-02-28T02:33:41;0;0;
59546;PMS5003;45368;55.002;-1.592;2023-02-28T02:36:30;1;0;
59546;PMS5003;45368;55.002;-1.592;2023-02-28T02:39:29;0;0;
59546;PMS5003;45368;55.002;-1.592;2023-02-28T02:42:27;2;0;
59546;PMS5003;45368;55.002;-1.592;2023-02-28T02:44:59;0;0;
59546;PMS5003;45368;55.002;-1.592;2023-02-28T02:47:33;1;0;
59546;PMS5003;45368;55.002;-1.592;2023-02-28T02:50:35;0;0;
59546;PMS5003;45368;55.002;-1.592;2023-02-28T02:53:07;1;1;
59546;PMS5003;45368;55.002;-1.592;2023-02-28T02:55:38;0;0;
59546;PMS5003;45368;55.002;-1.592;2023-02-28T02:58:26;0;0;
59546;PMS5003;45368;55.002;-1.592;2023-02-28T03:01:00;1;0;
59546;PMS5003;45368;55.002;-1.592;2023-02-28T03:03:30;0;0;
59546;PMS5003;45368;55.002;-1.592;2023-02-28T03:05:59;0;0;
59546;PMS5003;45368;55.002;-1.592;2023-02-28T03:08:29;0;0;
59546;PMS5003;45368;55.002;-1.592;2023-02-28T03:11:01;0;0;
59546;PMS5003;45368;55.002;-1.592;2023-02-28T03:14:40;0;0;
59546;PMS5003;45368;55.002;-1.592;2023-02-28T03:17:19;0;0;
59546;PMS5003;45368;55.002;-1.592;2023-02-28T03:20:05;1;0;
59546;PMS5003;45368;55.002;-1.592;2023-02-28T03:23:01;0;0;
59546;PMS5003;45368;55.002;-1.592;2023-02-28T03:25:37;1;0;
59546;PMS5003;45368;55.002;-1.592;2023-02-28T03:28:17;1;1;
59546;PMS5003;45368;55.002;-1.592;2023-02-28T03:30:54;1;0;
59546;PMS5003;45368;55.002;-1.592;2023-02-28T03:33:32;2;0;
59546;PMS5003;45368;55.002;-1.592;2023-02-28T03:36:08;0;0;
59546;PMS5003;45368;55.002;-1.592;2023-02-28T03:38:49;0;0;
59546;PMS5003;45368;55.002;-1.592;2023-02-28T03:41:23;0;0;
59546;PMS5003;45368;55.002;-1.592;2023-02-28T03:43:56;0;0;
59546;PMS5003;45368;55.002;-1.592;2023-02-28T03:48:52;0;0;
59546;PMS5003;45368;55.002;-1.592;2023-02-28T03:51:38;0;0;
59546;PMS5003;45368;55.002;-1.592;2023-02-28T03:54:37;0;0;
59546;PMS5003;45368;55.002;-1.592;2023-02-28T03:57:12;1;0;
59546;PMS5003;45368;55.002;-1.592;2023-02-28T03:59:49;0;0;
59546;PMS5003;45368;55.002;-1.592;2023-02-28T04:02:27;0;0;
59546;PMS5003;45368;55.002;-1.592;2023-02-28T04:05:06;1;1;
59546;PMS5003;45368;55.002;-1.592;2023-02-28T04:08:39;0;0;
59546;PMS5003;45368;55.002;-1.592;2023-02-28T04:11:19;0;0;
59546;PMS5003;45368;55.002;-1.592;2023-02-28T04:13:51;1;0;
59546;PMS5003;45368;55.002;-1.592;2023-02-28T04:16:18;0;0;
59546;PMS5003;45368;55.002;-1.592;2023-02-28T04:18:45;0;0;
59546;PMS5003;45368;55.002;-1.592;2023-02-28T04:21:14;0;0;
59546;PMS5003;45368;55.002;-1.592;2023-02-28T04:23:42;0;0;
59546;PMS5003;45368;55.002;-1.592;2023-02-28T04:26:10;1;1;
59546;PMS5003;45368;55.002;-1.592;2023-02-28T04:28:38;0;0;
59546;PMS5003;45368;55.002;-1.592;2023-02-28T04:31:37;1;1;
59546;PMS5003;45368;55.002;-1.592;2023-02-28T04:34:05;1;0;
59546;PMS5003;45368;55.002;-1.592;2023-02-28T04:36:32;0;0;
59546;PMS5003;45368;55.002;-1.592;2023-02-28T04:39:01;2;2;
59546;PMS5003;45368;55.002;-1.592;2023-02-28T04:41:28;0;0;
59546;PMS5003;45368;55.002;-1.592;2023-02-28T04:43:56;1;0;
59546;PMS5003;45368;55.002;-1.592;2023-02-28T04:46:24;0;0;
59546;PMS5003;45368;55.002;-1.592;2023-02-28T04:48:52;1;0;
59546;PMS5003;45368;55.002;-1.592;2023-02-28T04:51:27;1;0;
59546;PMS5003;45368;55.002;-1.592;2023-02-28T04:53:55;4;1;
59546;PMS5003;45368;55.002;-1.592;2023-02-28T04:56:23;1;1;
59546;PMS5003;45368;55.002;-1.592;2023-02-28T04:58:51;0;0;
59546;PMS5003;45368;55.002;-1.592;2023-02-28T05:01:20;0;0;
59546;PMS5003;45368;55.002;-1.592;2023-02-28T05:03:50;0;0;
59546;PMS5003;45368;55.002;-1.592;2023-02-28T05:06:19;1;1;
59546;PMS5003;45368;55.002;-1.592;2023-02-28T05:08:48;0;0;
59546;PMS5003;45368;55.002;-1.592;2023-02-28T05:11:17;2;2;
59546;PMS5003;45368;55.002;-1.592;2023-02-28T05:13:47;1;1;
59546;PMS5003;45368;55.002;-1.592;2023-02-28T05:16:43;1;1;
59546;PMS5003;45368;55.002;-1.592;2023-02-28T05:19:17;1;0;
59546;PMS5003;45368;55.002;-1.592;2023-02-28T05:21:51;2;1;
59546;PMS5003;45368;55.002;-1.592;2023-02-28T05:24:21;3;0;
59546;PMS5003;45368;55.002;-1.592;2023-02-28T05:26:49;0;0;
59546;PMS5003;45368;55.002;-1.592;2023-02-28T05:29:50;2;1;
59546;PMS5003;45368;55.002;-1.592;2023-02-28T05:30:01;2;1;
59546;PMS5003;45368;55.002;-1.592;2023-02-28T05:32:43;1;0;
59546;PMS5003;45368;55.002;-1.592;2023-02-28T05:35:31;1;1;
59546;PMS5003;45368;55.002;-1.592;2023-02-28T05:37:58;0;0;
59546;PMS5003;45368;55.002;-1.592;2023-02-28T05:40:26;0;0;
59546;PMS5003;45368;55.002;-1.592;2023-02-28T05:42:54;0;0;
59546;PMS5003;45368;55.002;-1.592;2023-02-28T05:45:23;1;1;
59546;PMS5003;45368;55.002;-1.592;2023-02-28T05:47:53;0;0;
59546;PMS5003;45368;55.002;-1.592;2023-02-28T05:50:26;1;0;
59546;PMS5003;45368;55.002;-1.592;2023-02-28T05:52:54;2;1;
59546;PMS5003;45368;55.002;-1.592;2023-02-28T05:55:22;1;1;
59546;PMS5003;45368;55.002;-1.592;2023-02-28T05:57:50;2;0;
59546;PMS5003;45368;55.002;-1.592;2023-02-28T06:00:25;1;1;
59546;PMS5003;45368;55.002;-1.592;2023-02-28T06:02:59;1;1;
59546;PMS5003;45368;55.002;-1.592;2023-02-28T06:05:38;1;1;
59546;PMS5003;45368;55.002;-1.592;2023-02-28T06:08:08;3;1;
59546;PMS5003;45368;55.002;-1.592;2023-02-28T06:10:36;4;1;
59546;PMS5003;45368;55.002;-1.592;2023-02-28T06:13:04;0;0;
59546;PMS5003;45368;55.002;-1.592;2023-02-28T06:15:38;2;1;
59546;PMS5003;45368;55.002;-1.592;2023-02-28T06:18:06;2;2;
59546;PMS5003;45368;55.002;-1.592;2023-02-28T06:20:33;1;1;
59546;PMS5003;45368;55.002;-1.592;2023-02-28T06:23:01;2;1;
59546;PMS5003;45368;55.002;-1.592;2023-02-28T06:28:35;0;0;
59546;PMS5003;45368;55.002;-1.592;2023-02-28T06:31:09;0;0;
59546;PMS5003;45368;55.002;-1.592;2023-02-28T06:33:38;1;1;
59546;PMS5003;45368;55.002;-1.592;2023-02-28T06:36:06;2;2;
59546;PMS5003;45368;55.002;-1.592;2023-02-28T06:38:35;2;2;
59546;PMS5003;45368;55.002;-1.592;2023-02-28T06:41:03;1;0;
59546;PMS5003;45368;55.002;-1.592;2023-02-28T06:43:38;2;2;
59546;PMS5003;45368;55.002;-1.592;2023-02-28T06:46:41;3;2;
59546;PMS5003;45368;55.002;-1.592;2023-02-28T06:49:11;3;1;
59546;PMS5003;45368;55.002;-1.592;2023-02-28T06:51:40;2;1;
59546;PMS5003;45368;55.002;-1.592;2023-02-28T08:08:25;0;0;
59546;PMS5003;45368;55.002;-1.592;2023-02-28T08:10:58;0;0;
59546;PMS5003;45368;55.002;-1.592;2023-02-28T08:13:33;0;0;
59546;PMS5003;45368;55.002;-1.592;2023-02-28T08:16:01;0;0;
59546;PMS5003;45368;55.002;-1.592;2023-02-28T08:18:29;0;0;
59546;PMS5003;45368;55.002;-1.592;2023-02-28T08:20:57;2;2;
59546;PMS5003;45368;55.002;-1.592;2023-02-28T08:23:56;3;2;
59546;PMS5003;45368;55.002;-1.592;2023-02-28T08:26:31;1;0;
59546;PMS5003;45368;55.002;-1.592;2023-02-28T08:29:01;0;0;
59546;PMS5003;45368;55.002;-1.592;2023-02-28T08:31:35;1;1;
59546;PMS5003;45368;55.002;-1.592;2023-02-28T08:37:05;1;0;
59546;PMS5003;45368;55.002;-1.592;2023-02-28T08:44:14;0;0;
59546;PMS5003;45368;55.002;-1.592;2023-02-28T09:30:07;2;0;
59546;PMS5003;45368;55.002;-1.592;2023-02-28T09:45:11;0;0;
59546;PMS5003;45368;55.002;-1.592;2023-02-28T09:56:26;0;0;
59546;PMS5003;45368;55.002;-1.592;2023-02-28T09:59:10;0;0;
59546;PMS5003;45368;55.002;-1.592;2023-02-28T10:01:49;0;0;
59546;PMS5003;45368;55.002;-1.592;2023-02-28T10:04:32;0;0;
59546;PMS5003;45368;55.002;-1.592;2023-02-28T10:07:11;0;0;
59546;PMS5003;45368;55.002;-1.592;2023-02-28T10:09:50;0;0;
59546;PMS5003;45368;55.002;-1.592;2023-02-28T10:12:21;0;0;
59546;PMS5003;45368;55.002;-1.592;2023-02-28T10:14:52;1;0;
59546;PMS5003;45368;55.002;-1.592;2023-02-28T10:17:21;0;0;
59546;PMS5003;45368;55.002;-1.592;2023-02-28T10:19:56;1;0;
59546;PMS5003;45368;55.002;-1.592;2023-02-28T10:22:28;0;0;
59546;PMS5003;45368;55.002;-1.592;2023-02-28T10:25:01;0;0;
59546;PMS5003;45368;55.002;-1.592;2023-02-28T10:27:42;0;0;
59546;PMS5003;45368;55.002;-1.592;2023-02-28T10:30:10;0;0;
59546;PMS5003;45368;55.002;-1.592;2023-02-28T10:32:40;0;0;
59546;PMS5003;45368;55.002;-1.592;2023-02-28T10:35:15;0;0;
59546;PMS5003;45368;55.002;-1.592;2023-02-28T10:37:44;0;0;
59546;PMS5003;45368;55.002;-1.592;2023-02-28T10:40:26;0;0;
59546;PMS5003;45368;55.002;-1.592;2023-02-28T10:42:59;0;0;
59546;PMS5003;45368;55.002;-1.592;2023-02-28T10:45:29;0;0;
59546;PMS5003;45368;55.002;-1.592;2023-02-28T10:48:01;0;0;
59546;PMS5003;45368;55.002;-1.592;2023-02-28T10:50:32;0;0;
59546;PMS5003;45368;55.002;-1.592;2023-02-28T10:53:07;0;0;
59546;PMS5003;45368;55.002;-1.592;2023-02-28T10:55:42;0;0;
59546;PMS5003;45368;55.002;-1.592;2023-02-28T10:58:20;0;0;
59546;PMS5003;45368;55.002;-1.592;2023-02-28T11:00:48;1;0;
59546;PMS5003;45368;55.002;-1.592;2023-02-28T11:03:29;0;0;
59546;PMS5003;45368;55.002;-1.592;2023-02-28T11:05:58;0;0;
59546;PMS5003;45368;55.002;-1.592;2023-02-28T11:08:32;0;0;
59546;PMS5003;45368;55.002;-1.592;2023-02-28T11:11:05;0;0;
59546;PMS5003;45368;55.002;-1.592;2023-02-28T11:13:33;1;0;
59546;PMS5003;45368;55.002;-1.592;2023-02-28T11:16:03;0;0;
59546;PMS5003;45368;55.002;-1.592;2023-02-28T11:18:35;0;0;
59546;PMS5003;45368;55.002;-1.592;2023-02-28T11:21:07;0;0;
59546;PMS5003;45368;55.002;-1.592;2023-02-28T11:23:42;0;0;
59546;PMS5003;45368;55.002;-1.592;2023-02-28T11:26:09;0;0;
59546;PMS5003;45368;55.002;-1.592;2023-02-28T11:28:38;0;0;
59546;PMS5003;45368;55.002;-1.592;2023-02-28T11:31:15;0;0;
59546;PMS5003;45368;55.002;-1.592;2023-02-28T11:33:45;0;0;
59546;PMS5003;45368;55.002;-1.592;2023-02-28T11:36:14;0;0;
59546;PMS5003;45368;55.002;-1.592;2023-02-28T11:38:48;0;0;
59546;PMS5003;45368;55.002;-1.592;2023-02-28T11:41:18;0;0;
59546;PMS5003;45368;55.002;-1.592;2023-02-28T11:44:01;0;0;
59546;PMS5003;45368;55.002;-1.592;2023-02-28T11:46:39;0;0;
59546;PMS5003;45368;55.002;-1.592;2023-02-28T11:49:18;0;0;
59546;PMS5003;45368;55.002;-1.592;2023-02-28T11:51:57;1;1;
59546;PMS5003;45368;55.002;-1.592;2023-02-28T11:54:31;0;0;
59546;PMS5003;45368;55.002;-1.592;2023-02-28T11:57:19;1;0;
59546;PMS5003;45368;55.002;-1.592;2023-02-28T12:00:00;0;0;
59546;PMS5003;45368;55.002;-1.592;2023-02-28T12:02:35;1;0;
59546;PMS5003;45368;55.002;-1.592;2023-02-28T12:05:20;2;0;
59546;PMS5003;45368;55.002;-1.592;2023-02-28T12:07:58;1;0;
59546;PMS5003;45368;55.002;-1.592;2023-02-28T12:10:36;0;0;
59546;PMS5003;45368;55.002;-1.592;2023-02-28T12:13:14;0;0;
59546;PMS5003;45368;55.002;-1.592;2023-02-28T12:15:50;2;0;
59546;PMS5003;45368;55.002;-1.592;2023-02-28T12:18:33;0;0;
59546;PMS5003;45368;55.002;-1.592;2023-02-28T12:21:17;0;0;
59546;PMS5003;45368;55.002;-1.592;2023-02-28T12:23:58;0;0;
59546;PMS5003;45368;55.002;-1.592;2023-02-28T12:26:35;1;1;
59546;PMS5003;45368;55.002;-1.592;2023-02-28T12:29:09;0;0;
59546;PMS5003;45368;55.002;-1.592;2023-02-28T12:31:45;0;0;
59546;PMS5003;45368;55.002;-1.592;2023-02-28T12:34:17;0;0;
59546;PMS5003;45368;55.002;-1.592;2023-02-28T12:36:47;2;0;
59546;PMS5003;45368;55.002;-1.592;2023-02-28T12:39:19;0;0;
59546;PMS5003;45368;55.002;-1.592;2023-02-28T12:41:53;0;0;
59546;PMS5003;45368;55.002;-1.592;2023-02-28T12:44:26;0;0;
59546;PMS5003;45368;55.002;-1.592;2023-02-28T12:46:59;0;0;
59546;PMS5003;45368;55.002;-1.592;2023-02-28T12:49:30;0;0;
59546;PMS5003;45368;55.002;-1.592;2023-02-28T12:52:01;0;0;
59546;PMS5003;45368;55.002;-1.592;2023-02-28T12:54:30;1;0;
59546;PMS5003;45368;55.002;-1.592;2023-02-28T12:57:06;0;0;
59546;PMS5003;45368;55.002;-1.592;2023-02-28T12:59:40;0;0;
59546;PMS5003;45368;55.002;-1.592;2023-02-28T13:02:18;1;0;
59546;PMS5003;45368;55.002;-1.592;2023-02-28T13:05:10;0;0;
59546;PMS5003;45368;55.002;-1.592;2023-02-28T13:07:55;0;0;
59546;PMS5003;45368;55.002;-1.592;2023-02-28T13:10:39;0;0;
59546;PMS5003;45368;55.002;-1.592;2023-02-28T13:13:13;0;0;
59546;PMS5003;45368;55.002;-1.592;2023-02-28T13:15:54;0;0;
59546;PMS5003;45368;55.002;-1.592;2023-02-28T13:18:28;0;0;
59546;PMS5003;45368;55.002;-1.592;2023-02-28T13:20:58;0;0;
59546;PMS5003;45368;55.002;-1.592;2023-02-28T13:24:00;0;0;
59546;PMS5003;45368;55.002;-1.592;2023-02-28T13:27:36;1;0;
59546;PMS5003;45368;55.002;-1.592;2023-02-28T13:31:11;0;0;
59546;PMS5003;45368;55.002;-1.592;2023-02-28T13:34:04;0;0;
59546;PMS5003;45368;55.002;-1.592;2023-02-28T13:36:39;0;0;
59546;PMS5003;45368;55.002;-1.592;2023-02-28T13:39:44;0;0;
59546;PMS5003;45368;55.002;-1.592;2023-02-28T13:42:32;0;0;
59546;PMS5003;45368;55.002;-1.592;2023-02-28T13:45:20;0;0;
59546;PMS5003;45368;55.002;-1.592;2023-02-28T13:47:52;0;0;
59546;PMS5003;45368;55.002;-1.592;2023-02-28T13:50:23;0;0;
59546;PMS5003;45368;55.002;-1.592;2023-02-28T13:52:59;0;0;
59546;PMS5003;45368;55.002;-1.592;2023-02-28T13:56:15;0;0;
59546;PMS5003;45368;55.002;-1.592;2023-02-28T13:58:54;0;0;
59546;PMS5003;45368;55.002;-1.592;2023-02-28T14:01:31;0;0;
59546;PMS5003;45368;55.002;-1.592;2023-02-28T14:04:14;0;0;
59546;PMS5003;45368;55.002;-1.592;2023-02-28T14:07:04;0;0;
59546;PMS5003;45368;55.002;-1.592;2023-02-28T14:09:33;0;0;
59546;PMS5003;45368;55.002;-1.592;2023-02-28T14:14:53;0;0;
59546;PMS5003;45368;55.002;-1.592;2023-02-28T14:17:21;0;0;
59546;PMS5003;45368;55.002;-1.592;2023-02-28T14:19:51;0;0;
59546;PMS5003;45368;55.002;-1.592;2023-02-28T14:22:22;1;0;
59546;PMS5003;45368;55.002;-1.592;2023-02-28T14:25:09;0;0;
59546;PMS5003;45368;55.002;-1.592;2023-02-28T14:27:47;0;0;
59546;PMS5003;45368;55.002;-1.592;2023-02-28T14:30:57;0;0;
59546;PMS5003;45368;55.002;-1.592;2023-02-28T14:33:37;1;0;
59546;PMS5003;45368;55.002;-1.592;2023-02-28T14:36:16;0;0;
59546;PMS5003;45368;55.002;-1.592;2023-02-28T14:38:49;0;0;
59546;PMS5003;45368;55.002;-1.592;2023-02-28T14:41:21;0;0;
59546;PMS5003;45368;55.002;-1.592;2023-02-28T14:43:51;1;0;
59546;PMS5003;45368;55.002;-1.592;2023-02-28T14:46:21;1;0;
59546;PMS5003;45368;55.002;-1.592;2023-02-28T14:48:52;1;0;
59546;PMS5003;45368;55.002;-1.592;2023-02-28T14:51:21;2;1;
59546;PMS5003;45368;55.002;-1.592;2023-02-28T14:53:53;1;1;
59546;PMS5003;45368;55.002;-1.592;2023-02-28T14:56:26;0;0;
59546;PMS5003;45368;55.002;-1.592;2023-02-28T14:58:56;2;0;
59546;PMS5003;45368;55.002;-1.592;2023-02-28T15:01:24;0;0;
59546;PMS5003;45368;55.002;-1.592;2023-02-28T15:04:01;0;0;
59546;PMS5003;45368;55.002;-1.592;2023-02-28T15:06:29;0;0;
59546;PMS5003;45368;55.002;-1.592;2023-02-28T15:09:07;2;0;
59546;PMS5003;45368;55.002;-1.592;2023-02-28T15:11:36;0;0;
59546;PMS5003;45368;55.002;-1.592;2023-02-28T15:14:06;1;0;
59546;PMS5003;45368;55.002;-1.592;2023-02-28T15:16:34;0;0;
59546;PMS5003;45368;55.002;-1.592;2023-02-28T15:19:04;1;0;
59546;PMS5003;45368;55.002;-1.592;2023-02-28T15:21:34;2;0;
59546;PMS5003;45368;55.002;-1.592;2023-02-28T15:24:05;0;0;
59546;PMS5003;45368;55.002;-1.592;2023-02-28T15:26:37;0;0;
59546;PMS5003;45368;55.002;-1.592;2023-02-28T15:29:08;1;1;
59546;PMS5003;45368;55.002;-1.592;2023-02-28T15:31:41;0;0;
59546;PMS5003;45368;55.002;-1.592;2023-02-28T15:34:12;1;1;
59546;PMS5003;45368;55.002;-1.592;2023-02-28T15:36:45;4;3;
59546;PMS5003;45368;55.002;-1.592;2023-02-28T15:39:21;1;0;
59546;PMS5003;45368;55.002;-1.592;2023-02-28T15:41:51;1;1;
59546;PMS5003;45368;55.002;-1.592;2023-02-28T15:44:23;1;1;
59546;PMS5003;45368;55.002;-1.592;2023-02-28T15:46:57;0;0;
59546;PMS5003;45368;55.002;-1.592;2023-02-28T15:49:27;1;1;
59546;PMS5003;45368;55.002;-1.592;2023-02-28T15:51:57;1;1;
59546;PMS5003;45368;55.002;-1.592;2023-02-28T15:54:27;2;1;
59546;PMS5003;45368;55.002;-1.592;2023-02-28T15:56:57;1;1;
59546;PMS5003;45368;55.002;-1.592;2023-02-28T15:59:29;2;1;
59546;PMS5003;45368;55.002;-1.592;2023-02-28T16:02:13;1;0;
59546;PMS5003;45368;55.002;-1.592;2023-02-28T16:05:01;2;0;
59546;PMS5003;45368;55.002;-1.592;2023-02-28T16:07:44;0;0;
59546;PMS5003;45368;55.002;-1.592;2023-02-28T16:10:12;2;2;
59546;PMS5003;45368;55.002;-1.592;2023-02-28T16:12:39;4;2;
59546;PMS5003;45368;55.002;-1.592;2023-02-28T16:15:08;2;1;
59546;PMS5003;45368;55.002;-1.592;2023-02-28T16:17:44;5;5;
59546;PMS5003;45368;55.002;-1.592;2023-02-28T16:20:13;4;3;
59546;PMS5003;45368;55.002;-1.592;2023-02-28T16:22:41;2;2;
59546;PMS5003;45368;55.002;-1.592;2023-02-28T16:25:11;2;2;
59546;PMS5003;45368;55.002;-1.592;2023-02-28T16:27:39;2;1;
59546;PMS5003;45368;55.002;-1.592;2023-02-28T16:30:13;3;2;
59546;PMS5003;45368;55.002;-1.592;2023-02-28T16:32:45;3;2;
59546;PMS5003;45368;55.002;-1.592;2023-02-28T16:35:12;3;2;
59546;PMS5003;45368;55.002;-1.592;2023-02-28T16:37:40;2;1;
59546;PMS5003;45368;55.002;-1.592;2023-02-28T16:40:09;2;2;
59546;PMS5003;45368;55.002;-1.592;2023-02-28T16:42:39;4;1;
59546;PMS5003;45368;55.002;-1.592;2023-02-28T16:45:10;0;0;
59546;PMS5003;45368;55.002;-1.592;2023-02-28T16:47:43;2;1;
59546;PMS5003;45368;55.002;-1.592;2023-02-28T16:50:12;3;1;
59546;PMS5003;45368;55.002;-1.592;2023-02-28T16:52:41;6;4;
59546;PMS5003;45368;55.002;-1.592;2023-02-28T16:55:10;5;4;
59546;PMS5003;45368;55.002;-1.592;2023-02-28T16:57:37;3;2;
59546;PMS5003;45368;55.002;-1.592;2023-02-28T17:00:06;6;2;
59546;PMS5003;45368;55.002;-1.592;2023-02-28T17:02:35;1;1;
59546;PMS5003;45368;55.002;-1.592;2023-02-28T17:05:02;3;1;
59546;PMS5003;45368;55.002;-1.592;2023-02-28T17:07:30;3;1;
59546;PMS5003;45368;55.002;-1.592;2023-02-28T17:09:57;2;2;
59546;PMS5003;45368;55.002;-1.592;2023-02-28T17:12:25;1;1;
59546;PMS5003;45368;55.002;-1.592;2023-02-28T17:14:52;3;3;
59546;PMS5003;45368;55.002;-1.592;2023-02-28T17:17:21;4;2;
59546;PMS5003;45368;55.002;-1.592;2023-02-28T17:19:48;9;6;
59546;PMS5003;45368;55.002;-1.592;2023-02-28T17:22:15;2;2;
59546;PMS5003;45368;55.002;-1.592;2023-02-28T17:24:43;2;2;
59546;PMS5003;45368;55.002;-1.592;2023-02-28T17:27:11;5;3;
59546;PMS5003;45368;55.002;-1.592;2023-02-28T17:29:39;3;2;
59546;PMS5003;45368;55.002;-1.592;2023-02-28T17:32:06;8;3;
59546;PMS5003;45368;55.002;-1.592;2023-02-28T17:34:34;9;7;
59546;PMS5003;45368;55.002;-1.592;2023-02-28T17:37:01;3;3;
59546;PMS5003;45368;55.002;-1.592;2023-02-28T17:39:28;6;3;
59546;PMS5003;45368;55.002;-1.592;2023-02-28T17:41:56;7;7;
59546;PMS5003;45368;55.002;-1.592;2023-02-28T17:44:23;5;4;
59546;PMS5003;45368;55.002;-1.592;2023-02-28T17:46:51;5;2;
59546;PMS5003;45368;55.002;-1.592;2023-02-28T17:49:21;5;4;
59546;PMS5003;45368;55.002;-1.592;2023-02-28T17:51:48;5;5;
59546;PMS5003;45368;55.002;-1.592;2023-02-28T17:54:16;1;1;
59546;PMS5003;45368;55.002;-1.592;2023-02-28T17:56:43;3;3;
59546;PMS5003;45368;55.002;-1.592;2023-02-28T17:59:11;5;3;
59546;PMS5003;45368;55.002;-1.592;2023-02-28T18:01:38;1;1;
59546;PMS5003;45368;55.002;-1.592;2023-02-28T18:04:06;4;2;
59546;PMS5003;45368;55.002;-1.592;2023-02-28T18:06:35;4;3;
59546;PMS5003;45368;55.002;-1.592;2023-02-28T18:09:03;5;5;
59546;PMS5003;45368;55.002;-1.592;2023-02-28T18:11:30;4;2;
59546;PMS5003;45368;55.002;-1.592;2023-02-28T18:13:58;4;2;
59546;PMS5003;45368;55.002;-1.592;2023-02-28T18:16:25;9;5;
59546;PMS5003;45368;55.002;-1.592;2023-02-28T18:18:52;6;2;
59546;PMS5003;45368;55.002;-1.592;2023-02-28T18:21:19;11;7;
59546;PMS5003;45368;55.002;-1.592;2023-02-28T18:23:46;6;4;
59546;PMS5003;45368;55.002;-1.592;2023-02-28T18:26:13;5;3;
59546;PMS5003;45368;55.002;-1.592;2023-02-28T18:28:41;4;2;
59546;PMS5003;45368;55.002;-1.592;2023-02-28T18:31:09;5;2;
59546;PMS5003;45368;55.002;-1.592;2023-02-28T18:33:37;3;2;
59546;PMS5003;45368;55.002;-1.592;2023-02-28T18:36:04;6;4;
59546;PMS5003;45368;55.002;-1.592;2023-02-28T18:38:32;2;2;
59546;PMS5003;45368;55.002;-1.592;2023-02-28T18:41:00;4;3;
59546;PMS5003;45368;55.002;-1.592;2023-02-28T18:43:29;3;3;
59546;PMS5003;45368;55.002;-1.592;2023-02-28T18:46:02;3;2;
59546;PMS5003;45368;55.002;-1.592;2023-02-28T18:48:30;5;3;
59546;PMS5003;45368;55.002;-1.592;2023-02-28T18:50:58;3;1;
59546;PMS5003;45368;55.002;-1.592;2023-02-28T18:53:31;3;2;
59546;PMS5003;45368;55.002;-1.592;2023-02-28T18:56:01;5;4;
59546;PMS5003;45368;55.002;-1.592;2023-02-28T18:58:29;3;3;
59546;PMS5003;45368;55.002;-1.592;2023-02-28T19:00:58;5;2;
59546;PMS5003;45368;55.002;-1.592;2023-02-28T19:03:25;1;1;
59546;PMS5003;45368;55.002;-1.592;2023-02-28T19:05:54;5;2;
59546;PMS5003;45368;55.002;-1.592;2023-02-28T19:08:22;4;2;
59546;PMS5003;45368;55.002;-1.592;2023-02-28T19:10:49;3;2;
59546;PMS5003;45368;55.002;-1.592;2023-02-28T19:13:18;7;4;
59546;PMS5003;45368;55.002;-1.592;2023-02-28T19:15:45;2;2;
59546;PMS5003;45368;55.002;-1.592;2023-02-28T19:18:13;3;1;
59546;PMS5003;45368;55.002;-1.592;2023-02-28T19:20:40;3;2;
59546;PMS5003;45368;55.002;-1.592;2023-02-28T19:23:08;0;0;
59546;PMS5003;45368;55.002;-1.592;2023-02-28T19:25:39;4;1;
59546;PMS5003;45368;55.002;-1.592;2023-02-28T19:28:07;2;1;
59546;PMS5003;45368;55.002;-1.592;2023-02-28T19:30:34;2;1;
59546;PMS5003;45368;55.002;-1.592;2023-02-28T19:33:02;4;3;
59546;PMS5003;45368;55.002;-1.592;2023-02-28T19:35:34;2;1;
59546;PMS5003;45368;55.002;-1.592;2023-02-28T19:38:01;2;1;
59546;PMS5003;45368;55.002;-1.592;2023-02-28T19:40:28;3;1;
59546;PMS5003;45368;55.002;-1.592;2023-02-28T19:42:56;1;1;
59546;PMS5003;45368;55.002;-1.592;2023-02-28T19:45:24;2;0;
59546;PMS5003;45368;55.002;-1.592;2023-02-28T19:47:51;1;1;
59546;PMS5003;45368;55.002;-1.592;2023-02-28T19:50:18;0;0;
59546;PMS5003;45368;55.002;-1.592;2023-02-28T19:52:45;2;1;
59546;PMS5003;45368;55.002;-1.592;2023-02-28T19:55:11;2;1;
59546;PMS5003;45368;55.002;-1.592;2023-02-28T19:57:38;0;0;
59546;PMS5003;45368;55.002;-1.592;2023-02-28T20:00:07;4;2;
59546;PMS5003;45368;55.002;-1.592;2023-02-28T20:02:35;1;1;